YMNG weather

Mangalore Airport
Victoria, Australia

Public forecast

Using degrees Celsius for public forecast. Weather courtesy of forecast.io.

METAR (pilot weather report)

Closest report is Melbourne International Airport, 49.9 nm (92.4 km) SSW. Retrieved 2019/03/20 02:30 UTC (29 minutes ago):

YMML 200230Z 20007KT 9999 SCT018 BKN028 23/17 Q1015 NOSIG

TAF (pilot weather forecast)

Forecast is more than 6 hours old.

Closest forecast is Melbourne International Airport, 49.9 nm (92.4 km) SSW. Retrieved 2019/03/19 18:00 UTC (9 hours ago):

TAF YMML 191710Z 1918/2024 21008KT 8000 -DZ BKN005 FM192000 22008KT 9999 -DZ FEW007 BKN012 FM192300 20008KT 9999 FEW010 BKN018 FM200200 21008KT 9999 SCT030 FM200900 21008KT 9999 FEW007 BKN010 FM201200 24007KT 9999 -DZ BKN006 FM202200 22007KT 9999 FEW008 BKN012 TEMPO 1918/1921 2000 DZ BKN002 TEMPO 1921/1924 5000 DZ BKN008 TEMPO 2009/2023 5000 -DZ BKN005